Hauptseite
METAR-TAF:

METAR-TAF

Flughäfen :

Flughafen Stuttgart

Stuttgart, Deutschland

Breite: 48-41N, Länge: 009-13E, Höhe: 396 m

Beobachtung

Neuester Wetterbericht von vor 39 Minuten, um 15:20 UTC
Wind 6 kt aus Nord
Temperatur 21°C
Luftfeuchtigkeit 43%
Luftdruck 1017 hPa
Sichtweite 10 km oder mehr
keine Wolken unter 1500 m und keine Kumulonimbus oder Gewitterwolken

METAR: EDDS 171520Z 36006KT CAVOK 21/08 Q1017 NOSIG

Zeit: 17:59 (15:59 UTC)

Prognose

Neuester Wetterbericht von vor 4 Stunden und 59 Minuten, um 11:00 UTC
Gültige Prognose vom 17 um 12 UTC bis 18 um 12 UTC
Wind 5 kt aus Nord/Nordost
Sichtweite 10 km oder mehr
keine Wolken unter 1500 m und keine Kumulonimbus oder Gewitterwolken
Übergehend zu
vom 17 um 17 UTC bis 17 um 19 UTC
Wind 3 kt aus unterschiedlichen Richtungen

TAF: EDDS 171100Z 1712/1812 02005KT CAVOK BECMG 1717/1719 VRB03KT

Wetterbeobachtungen und Prognosen von mehr als 4000 Flughäfen (METAR und TAF Bericht).

Die verfügbaren Stationen werden durch gelbe und rote Markierungen auf der Karte dargestellt.

Führen Sie die Maus auf sie, um den Namen der Station zu sehen.

Darauf klicken, um die Beobachtung von Wetterbeobachtungen und Prognosen zu sehen.

Um die Karte zu ändern : klicken Sie auf den grünen Tasten mit einem schwarzen Kreuz Zum Vergrößern, auf den grünen Button mit einem Gedankenstrich zu verkleinern, oder auf die grünen Pfeile für benachbarte Karten.


METAR-TAF: